»·PEaware :: GTH100 KRQE-KAMA

GTH100 :: KRQE-KAMA

FLIGHT INFORMATION

Flight Status: Arrived
Operator: Unknown
More flights by this operator :: More flights under this callsign
Pilot: Peter M. (9586)
Aircraft: FAIRCHILD F-27 FH-227
(F27)
More flights by this aircraft type
Origin: KRQE Window Rock
United States
Destination: KAMA Amarillo Intl
United States
More flights between these airports :: More routes between these airports
Route: +GUP J8 FTI J58 PNH
File this flight plan on PilotEdge
Remarks:
Altitude:
(Current/Filed)
210ft
Speed:
(Current/Filed)
220kts
Departed: 05-Jan-18 10:10 PM
Arrived: 05-Jan-18 11:16 PM
Distance/Time
Traveled:
361nm/1:06
Distance/Time
To Go:
Arrived

Flight Plot

Page will automatically refresh every two minutes.

Flight plan parsing failed; only flown route is shown


Map Options




Map Legend


Flown Route
Filed Route
Departure Airport
Arrival Airport
Navaid (VOR, NDB)
Fix

Horizontal Profiles

Position Reports

Time Latitude Longitude Heading Altitude Ground
Speed
05-Jan-18 21:57 35.660185 -109.058117 26 6748ft 0kts
05-Jan-18 21:58 35.660185 -109.058117 26 6748ft 0kts
05-Jan-18 21:59 35.660185 -109.058117 26 6748ft 0kts
05-Jan-18 22:00 35.660185 -109.058117 26 6748ft 0kts
05-Jan-18 22:01 35.660185 -109.058117 26 6748ft 0kts
05-Jan-18 22:02 35.660185 -109.058117 26 6748ft 0kts
05-Jan-18 22:03 35.660185 -109.058117 26 6748ft 0kts
05-Jan-18 22:04 35.660185 -109.058117 26 6748ft 0kts
05-Jan-18 22:05 35.660185 -109.058117 26 6748ft 0kts
05-Jan-18 22:06 35.660185 -109.058117 26 6748ft 0kts
05-Jan-18 22:07 35.660185 -109.058117 26 6748ft 0kts
05-Jan-18 22:08 35.660185 -109.058117 26 6748ft 0kts
05-Jan-18 22:09 35.660185 -109.058117 26 6748ft 0kts
05-Jan-18 22:10 35.660191 -109.058113 26 6748ft 0kts
05-Jan-18 22:11 35.660519 -109.057889 29 6748ft 0kts
05-Jan-18 22:12 35.660526 -109.057884 29 6748ft 0kts
05-Jan-18 22:13 35.660533 -109.057879 29 6748ft 0kts
05-Jan-18 22:14 35.660541 -109.057873 29 6748ft 0kts
05-Jan-18 22:15 35.660721 -109.057778 254 6748ft 38kts
05-Jan-18 22:16 35.658802 -109.061758 213 6748ft 43kts
05-Jan-18 22:17 35.629195 -109.090134 217 7354ft 207kts
05-Jan-18 22:18 35.582936 -109.066478 126 9464ft 233kts
05-Jan-18 22:19 35.550072 -109.000796 129 11957ft 231kts
05-Jan-18 22:20 35.499096 -108.943441 124 13513ft 260kts
05-Jan-18 22:21 35.472059 -108.865220 108 15562ft 271kts
05-Jan-18 22:22 35.451718 -108.771076 72 15684ft 303kts
05-Jan-18 22:23 35.489617 -108.649608 79 16909ft 293kts
05-Jan-18 22:24 35.510242 -108.319668 79 20091ft 303kts
05-Jan-18 22:25 35.535233 -107.886975 78 21455ft 325kts
05-Jan-18 22:26 35.545339 -107.703134 78 21299ft 314kts
05-Jan-18 22:27 35.551004 -107.597588 78 21613ft 305kts
05-Jan-18 22:28 35.556655 -107.492212 78 21491ft 311kts
05-Jan-18 22:29 35.562270 -107.385729 78 21358ft 312kts
05-Jan-18 22:30 35.567653 -107.279761 78 21274ft 311kts
05-Jan-18 22:31 35.572980 -107.173979 78 21180ft 310kts
05-Jan-18 22:32 35.578340 -107.067149 79 20617ft 325kts
05-Jan-18 22:33 35.583407 -106.960847 78 21012ft 301kts
05-Jan-18 22:34 35.588320 -106.858370 78 21497ft 298kts
05-Jan-18 22:35 35.594157 -106.734208 78 21710ft 303kts
05-Jan-18 22:36 35.602909 -106.541905 79 21684ft 304kts
05-Jan-18 22:37 35.607560 -106.437329 77 21567ft 310kts
05-Jan-18 22:38 35.612175 -106.331048 77 21477ft 314kts
05-Jan-18 22:39 35.616712 -106.223732 78 21356ft 313kts
05-Jan-18 22:40 35.621151 -106.116678 78 21205ft 314kts
05-Jan-18 22:41 35.625544 -106.009803 78 21092ft 313kts
05-Jan-18 22:42 35.629671 -105.905155 77 21519ft 305kts
05-Jan-18 22:43 35.633820 -105.799590 78 21468ft 312kts
05-Jan-18 22:44 35.637883 -105.692826 78 21352ft 314kts
05-Jan-18 22:45 35.641873 -105.585701 82 21271ft 309kts
05-Jan-18 22:46 35.646807 -105.448853 82 21113ft 296kts
05-Jan-18 22:47 35.653821 -105.247534 82 20922ft 294kts
05-Jan-18 22:48 35.647662 -105.048300 92 21257ft 290kts
05-Jan-18 22:49 35.625953 -104.846414 93 21087ft 299kts
05-Jan-18 22:50 35.603352 -104.643637 93 20999ft 294kts
05-Jan-18 22:51 35.580782 -104.444064 93 21127ft 299kts
05-Jan-18 22:52 35.557582 -104.242042 93 20920ft 305kts
05-Jan-18 22:53 35.533532 -104.036073 93 21122ft 303kts
05-Jan-18 22:54 35.516826 -103.894464 93 21000ft 308kts
05-Jan-18 22:55 35.491858 -103.686125 93 20796ft 307kts
05-Jan-18 22:56 35.475612 -103.552304 93 20647ft 298kts
05-Jan-18 22:57 35.452531 -103.363725 93 20458ft 293kts
05-Jan-18 22:58 35.427937 -103.165817 94 20257ft 292kts
05-Jan-18 22:59 35.408025 -103.007489 94 20117ft 291kts
05-Jan-18 23:00 35.395793 -102.911303 94 20479ft 281kts
05-Jan-18 23:01 35.383637 -102.815688 94 20638ft 287kts
05-Jan-18 23:02 35.371376 -102.720485 94 20450ft 276kts
05-Jan-18 23:03 35.348788 -102.546422 94 18205ft 280kts
05-Jan-18 23:04 35.324774 -102.363575 95 15840ft 265kts
05-Jan-18 23:05 35.301683 -102.189786 94 13553ft 255kts
05-Jan-18 23:06 35.286501 -102.076549 95 12028ft 247kts
05-Jan-18 23:07 35.275521 -101.995307 95 11190ft 230kts
05-Jan-18 23:08 35.265596 -101.922256 95 11064ft 208kts
05-Jan-18 23:09 35.256159 -101.852768 95 9929ft 213kts
05-Jan-18 23:10 35.246378 -101.781075 95 8743ft 213kts
05-Jan-18 23:11 35.244618 -101.711132 65 7339ft 220kts
05-Jan-18 23:12 35.258070 -101.641537 70 6239ft 218kts
05-Jan-18 23:13 35.285446 -101.577570 85 4954ft 218kts
05-Jan-18 23:14 35.274864 -101.514739 97 4896ft 173kts
05-Jan-18 23:15 35.301722 -101.490475 313 4679ft 157kts
05-Jan-18 23:16 35.303658 -101.536885 240 4655ft 147kts
05-Jan-18 23:17 35.285561 -101.581841 246 5194ft 142kts
05-Jan-18 23:18 35.274941 -101.626696 249 5004ft 124kts
05-Jan-18 23:19 35.259192 -101.664376 226 4496ft 127kts
05-Jan-18 23:20 35.237256 -101.692199 225 3807ft 101kts
05-Jan-18 23:21 35.220327 -101.713072 225 3613ft 60kts
05-Jan-18 23:22 35.217096 -101.712725 46 3613ft 38kts
05-Jan-18 23:23 35.217536 -101.710019 134 3613ft 0kts

Navigation Log

Ident Type
Flight plan parsing failed, navigation log unavailable